Time;durP1;ratioP1;P1;durP2;ratioP2;P2;SDS_P1;SDS_P2;PMS_P1;PMS_P2;Temp;Humidity;BMP_temperature;BMP_pressure;BME280_temperature;BME280_humidity;BME280_pressure;Samples;Min_cycle;Max_cycle;Signal;HPM_P1;HPM_P2
2022/05/28 00:00:27;;;;;;;10.35;3.65;;;;;;;10.25;64.42;100208.78;5009912;28;20026;-57
2022/05/28 00:02:53;;;;;;;13.05;3.88;;;;;;;10.38;63.04;100204.72;5009856;28;20429;-54
2022/05/28 00:05:19;;;;;;;9.93;3.30;;;;;;;10.40;63.05;100197.63;5010398;28;20141;-54
2022/05/28 00:07:45;;;;;;;12.60;3.65;;;;;;;10.38;63.06;100198.59;5007077;28;20076;-65
2022/05/28 00:10:13;;;;;;;11.15;3.03;;;;;;;10.34;63.02;100197.00;5012367;28;20026;-64
2022/05/28 00:12:39;;;;;;;9.70;3.42;;;;;;;10.24;63.27;100197.38;5014000;28;20075;-64
2022/05/28 00:15:06;;;;;;;11.77;2.97;;;;;;;10.13;63.47;100190.84;5010856;28;20114;-65
2022/05/28 00:17:31;;;;;;;10.88;3.33;;;;;;;10.08;63.76;100191.88;5010080;28;20375;-65
2022/05/28 00:19:56;;;;;;;17.65;3.55;;;;;;;10.04;64.27;100187.66;5010255;28;20065;-65
2022/05/28 00:22:22;;;;;;;7.75;4.00;;;;;;;10.00;63.82;100186.06;5010162;28;20030;-64
2022/05/28 00:24:47;;;;;;;10.45;3.70;;;;;;;9.91;64.37;100183.78;5010135;28;20117;-64
2022/05/28 00:27:12;;;;;;;12.57;3.67;;;;;;;9.93;64.96;100181.09;5009393;28;20033;-64
2022/05/28 00:29:38;;;;;;;6.18;3.20;;;;;;;9.94;64.65;100183.66;5009827;28;20030;-65
2022/05/28 00:32:04;;;;;;;11.38;3.53;;;;;;;9.89;64.24;100181.25;5010172;28;20040;-66
2022/05/28 00:34:30;;;;;;;9.40;3.05;;;;;;;9.89;64.19;100183.00;5008273;28;20041;-66
2022/05/28 00:36:55;;;;;;;10.85;3.78;;;;;;;9.92;64.59;100176.75;5009159;28;20502;-65
2022/05/28 00:39:21;;;;;;;12.25;3.75;;;;;;;9.87;64.72;100184.84;5010811;28;20037;-64
2022/05/28 00:41:46;;;;;;;12.40;3.38;;;;;;;9.87;64.67;100182.22;5010345;28;20510;-63
2022/05/28 00:44:12;;;;;;;8.57;3.15;;;;;;;9.83;64.52;100178.84;5010946;28;20034;-64
2022/05/28 00:46:38;;;;;;;17.98;4.38;;;;;;;9.84;65.05;100180.53;5010613;28;20042;-62
2022/05/28 00:49:08;;;;;;;8.57;2.80;;;;;;;9.79;64.98;100182.50;5010546;28;20037;-64
2022/05/28 00:51:40;;;;;;;13.15;3.75;;;;;;;9.77;65.25;100191.38;5010540;28;20034;-62
2022/05/28 00:54:06;;;;;;;10.75;3.97;;;;;;;9.75;64.88;100186.19;5010481;28;20113;-64
2022/05/28 00:56:32;;;;;;;11.27;4.43;;;;;;;9.71;65.47;100187.22;5009354;28;20034;-64
2022/05/28 00:58:58;;;;;;;11.52;3.53;;;;;;;9.71;65.60;100189.00;5010262;28;20045;-66
2022/05/28 01:01:27;;;;;;;12.25;4.30;;;;;;;9.62;65.42;100185.81;5010429;28;20033;-61
2022/05/28 01:04:04;;;;;;;12.98;4.28;;;;;;;9.64;65.88;100183.97;5022797;28;20120;-63
2022/05/28 01:06:35;;;;;;;13.23;3.97;;;;;;;9.66;65.14;100181.28;5010225;28;20052;-66
2022/05/28 01:09:03;;;;;;;14.98;4.30;;;;;;;9.59;65.91;100185.06;5010998;28;20045;-65
2022/05/28 01:11:41;;;;;;;14.35;4.75;;;;;;;9.45;66.42;100175.94;5010351;28;20038;-63
2022/05/28 01:14:19;;;;;;;13.20;3.78;;;;;;;9.41;67.06;100178.75;5011133;28;20286;-64
2022/05/28 01:16:54;;;;;;;10.75;4.63;;;;;;;9.35;67.20;100174.59;5013416;28;20569;-64
2022/05/28 01:19:35;;;;;;;12.93;3.53;;;;;;;9.33;67.50;100171.16;5013339;28;20049;-62
2022/05/28 01:22:06;;;;;;;8.98;3.85;;;;;;;9.29;67.20;100166.06;5013606;28;20545;-64
2022/05/28 01:24:38;;;;;;;10.02;3.53;;;;;;;9.31;67.31;100172.13;5013638;28;20608;-62
2022/05/28 01:27:08;;;;;;;12.45;3.58;;;;;;;9.32;67.68;100163.28;5012905;28;20040;-63
2022/05/28 01:29:41;;;;;;;8.45;4.15;;;;;;;9.33;67.85;100160.63;5013796;28;20037;-63
2022/05/28 01:32:09;;;;;;;10.68;3.50;;;;;;;9.27;68.16;100155.56;5014058;28;20033;-60
2022/05/28 01:34:35;;;;;;;9.80;3.78;;;;;;;9.29;67.64;100153.75;5014346;28;20041;-63
2022/05/28 01:37:04;;;;;;;7.32;3.17;;;;;;;9.24;68.15;100155.69;5017455;28;20046;-62
2022/05/28 01:39:31;;;;;;;10.05;2.92;;;;;;;9.19;68.43;100147.97;5019511;28;20046;-60
2022/05/28 01:41:57;;;;;;;10.02;3.38;;;;;;;9.22;68.30;100147.84;5017866;28;20113;-65
2022/05/28 01:44:23;;;;;;;10.88;3.92;;;;;;;9.22;68.22;100147.84;5016009;28;20038;-65
2022/05/28 01:46:51;;;;;;;16.67;5.30;;;;;;;9.24;67.87;100140.75;5014519;28;20493;-65
2022/05/28 01:49:19;;;;;;;9.77;3.80;;;;;;;9.26;67.71;100145.97;5014557;28;20045;-64
2022/05/28 01:51:52;;;;;;;12.82;3.97;;;;;;;9.27;68.09;100144.19;5012537;28;20037;-63
2022/05/28 01:54:23;;;;;;;14.70;3.92;;;;;;;9.28;68.52;100141.53;5014094;28;20060;-65
2022/05/28 01:56:51;;;;;;;13.23;4.35;;;;;;;9.35;68.04;100139.50;5012876;28;20439;-64
2022/05/28 01:59:22;;;;;;;11.43;3.17;;;;;;;9.38;68.13;100137.63;5013296;28;20510;-63
2022/05/28 02:01:48;;;;;;;9.38;3.42;;;;;;;9.46;67.39;100140.78;5013190;28;20042;-65
2022/05/28 02:04:13;;;;;;;10.77;4.03;;;;;;;9.56;66.86;100133.41;5012750;28;20040;-65
2022/05/28 02:06:40;;;;;;;9.10;4.18;;;;;;;9.71;66.13;100133.72;4995434;28;20580;-66
2022/05/28 02:09:11;;;;;;;12.95;4.50;;;;;;;9.83;66.10;100125.31;5012034;28;20105;-63
2022/05/28 02:12:08;;;;;;;11.85;3.85;;;;;;;9.94;66.37;100130.13;5012684;28;20042;-65
2022/05/28 02:14:51;;;;;;;13.52;4.07;;;;;;;10.06;65.82;100125.22;5011432;28;20038;-64
2022/05/28 02:17:24;;;;;;;10.95;3.78;;;;;;;10.21;64.59;100122.84;5011475;28;20129;-65
2022/05/28 02:20:13;;;;;;;9.32;4.07;;;;;;;10.33;64.10;100130.28;5012257;28;20397;-64
2022/05/28 02:22:43;;;;;;;16.75;4.50;;;;;;;10.41;63.69;100122.91;5012231;28;20415;-65
2022/05/28 02:25:19;;;;;;;13.77;3.78;;;;;;;10.48;63.67;100113.84;5012251;28;20042;-65
2022/05/28 02:27:46;;;;;;;11.93;3.70;;;;;;;10.53;63.21;100118.88;5011223;28;20106;-63
2022/05/28 02:30:13;;;;;;;11.02;4.72;;;;;;;10.58;63.11;100114.25;5011894;28;20030;-61
2022/05/28 02:32:38;;;;;;;9.88;3.70;;;;;;;10.64;62.65;100115.78;5012333;28;20037;-65
2022/05/28 02:35:04;;;;;;;12.25;4.00;;;;;;;10.68;62.78;100119.97;5011788;28;20500;-66
2022/05/28 02:37:30;;;;;;;18.52;3.17;;;;;;;10.66;62.46;100111.31;5010994;28;20124;-65
2022/05/28 02:39:57;;;;;;;10.32;3.72;;;;;;;10.67;62.18;100110.38;5011559;28;20042;-64
2022/05/28 02:42:23;;;;;;;10.65;4.07;;;;;;;10.68;62.48;100118.22;5011117;28;20137;-65
2022/05/28 02:44:49;;;;;;;8.70;3.35;;;;;;;10.70;62.18;100116.34;5011652;28;20025;-65
2022/05/28 02:47:14;;;;;;;9.40;4.28;;;;;;;10.73;61.87;100118.00;5010653;28;20030;-65
2022/05/28 02:49:40;;;;;;;9.65;3.13;;;;;;;10.80;62.13;100116.78;5011978;28;20049;-64
2022/05/28 02:52:07;;;;;;;7.78;3.65;;;;;;;10.83;62.28;100115.78;5014445;28;20037;-65
2022/05/28 02:54:33;;;;;;;11.73;4.35;;;;;;;10.84;61.59;100107.81;5017963;28;20088;-64
2022/05/28 02:56:59;;;;;;;9.63;3.33;;;;;;;10.85;61.90;100113.94;5016383;28;20061;-64
2022/05/28 02:59:24;;;;;;;12.30;3.72;;;;;;;10.86;61.72;100113.91;5011810;28;20069;-64
2022/05/28 03:01:50;;;;;;;10.80;3.85;;;;;;;10.84;61.81;100107.81;5011724;28;20033;-63
2022/05/28 03:04:16;;;;;;;12.55;4.03;;;;;;;10.82;61.83;100103.56;5011700;28;20068;-65
2022/05/28 03:06:41;;;;;;;14.23;4.03;;;;;;;10.79;61.31;100107.19;5011887;28;20034;-65
2022/05/28 03:09:08;;;;;;;12.48;4.15;;;;;;;10.82;61.68;100112.31;5013069;28;20030;-66
2022/05/28 03:11:35;;;;;;;11.18;3.85;;;;;;;10.81;61.56;100102.69;5012677;28;21995;-66
2022/05/28 03:14:01;;;;;;;11.07;3.35;;;;;;;10.83;61.67;100108.75;5012547;28;20087;-65
2022/05/28 03:16:27;;;;;;;8.20;3.83;;;;;;;10.81;61.08;100107.97;5011611;28;20425;-66
2022/05/28 03:18:52;;;;;;;17.85;5.07;;;;;;;10.80;61.57;100106.25;5011885;28;20034;-65
2022/05/28 03:21:18;;;;;;;9.15;3.58;;;;;;;10.80;61.26;100102.75;5011390;28;20037;-65
2022/05/28 03:23:53;;;;;;;17.02;4.40;;;;;;;10.81;61.84;100113.25;5010955;28;20040;-65
2022/05/28 03:26:21;;;;;;;14.23;4.15;;;;;;;10.84;61.61;100109.63;5010564;28;20084;-65
2022/05/28 03:28:48;;;;;;;7.88;3.47;;;;;;;10.84;61.28;100112.25;5009544;28;20034;-66
2022/05/28 03:31:14;;;;;;;13.07;3.55;;;;;;;10.85;61.88;100114.81;5010726;28;20308;-64
2022/05/28 03:33:39;;;;;;;8.50;3.17;;;;;;;10.85;61.85;100112.16;5011190;28;20042;-65
2022/05/28 03:36:05;;;;;;;16.73;5.53;;;;;;;10.89;61.40;100115.53;5010155;28;20397;-65
2022/05/28 03:38:31;;;;;;;8.93;3.90;;;;;;;10.90;61.37;100112.84;5010732;28;20108;-65
2022/05/28 03:40:58;;;;;;;11.15;3.90;;;;;;;10.93;61.80;100117.97;5010891;28;20572;-64
2022/05/28 03:43:24;;;;;;;9.35;3.08;;;;;;;10.99;62.05;100111.56;5010474;28;20037;-65
2022/05/28 03:45:49;;;;;;;9.85;3.05;;;;;;;11.08;61.53;100103.22;5009924;28;20472;-64
2022/05/28 03:48:15;;;;;;;11.95;4.40;;;;;;;11.16;60.72;100102.88;5010099;28;20121;-65
2022/05/28 03:50:40;;;;;;;13.00;3.63;;;;;;;11.25;60.02;100104.19;5011167;28;20120;-66
2022/05/28 03:53:05;;;;;;;10.43;3.75;;;;;;;11.37;60.03;100112.41;5009193;28;20038;-64
2022/05/28 03:55:31;;;;;;;9.10;3.97;;;;;;;11.45;60.01;100114.69;5010353;28;20482;-65
2022/05/28 03:57:56;;;;;;;9.70;4.13;;;;;;;11.49;59.45;100110.09;5009789;28;20037;-65
2022/05/28 04:00:22;;;;;;;11.63;4.50;;;;;;;11.52;59.08;100105.56;5010089;28;20088;-65
2022/05/28 04:02:47;;;;;;;12.98;3.33;;;;;;;11.52;59.09;100100.28;5008161;28;20037;-64
2022/05/28 04:05:13;;;;;;;6.75;3.50;;;;;;;11.57;59.00;100106.19;5009364;28;20603;-66
2022/05/28 04:07:40;;;;;;;11.90;4.07;;;;;;;11.63;58.79;100112.09;5009645;28;20042;-66
2022/05/28 04:10:06;;;;;;;15.60;4.03;;;;;;;11.69;58.96;100109.16;5008310;28;20042;-66
2022/05/28 04:12:32;;;;;;;11.70;3.22;;;;;;;11.77;58.79;100113.13;5009822;28;20054;-64
2022/05/28 04:14:57;;;;;;;12.23;3.95;;;;;;;11.83;58.52;100114.63;5010076;28;20030;-64
2022/05/28 04:17:23;;;;;;;16.17;4.18;;;;;;;11.88;58.08;100110.00;5009613;28;20037;-64
2022/05/28 04:19:48;;;;;;;17.35;4.22;;;;;;;11.93;58.59;100118.53;5009995;28;20042;-65
2022/05/28 04:22:13;;;;;;;13.45;5.55;;;;;;;11.95;58.14;100123.75;5009730;28;20038;-66
2022/05/28 04:24:39;;;;;;;16.63;4.55;;;;;;;11.96;58.25;100120.16;5010030;28;20448;-66
2022/05/28 04:27:04;;;;;;;13.52;3.88;;;;;;;11.96;58.16;100123.69;5007599;28;20114;-66
2022/05/28 04:29:30;;;;;;;17.25;4.43;;;;;;;11.99;58.35;100123.53;5009800;28;20034;-66
2022/05/28 04:31:55;;;;;;;11.77;4.43;;;;;;;11.99;58.28;100120.03;5010104;28;20472;-66
2022/05/28 04:34:21;;;;;;;12.80;4.25;;;;;;;12.00;57.99;100124.38;5010516;28;20034;-65
2022/05/28 04:36:46;;;;;;;12.07;3.85;;;;;;;11.97;58.39;100128.03;5009756;28;20114;-65
2022/05/28 04:39:11;;;;;;;18.83;4.80;;;;;;;11.98;58.42;100123.59;5010047;28;20034;-66
2022/05/28 04:41:37;;;;;;;17.60;4.53;;;;;;;12.00;58.43;100127.88;5010053;28;20121;-66
2022/05/28 04:44:02;;;;;;;15.73;3.67;;;;;;;11.99;58.65;100127.97;5009831;28;20065;-65
2022/05/28 04:46:27;;;;;;;13.35;4.80;;;;;;;12.02;58.52;100131.31;5009273;28;20514;-66
2022/05/28 04:48:54;;;;;;;12.27;4.38;;;;;;;12.06;58.34;100132.03;5009892;28;20030;-63
2022/05/28 04:51:20;;;;;;;11.73;4.05;;;;;;;12.09;58.53;100133.66;5013869;28;20069;-65
2022/05/28 04:53:46;;;;;;;12.88;3.80;;;;;;;12.11;58.30;100126.47;5013883;28;20038;-65
2022/05/28 04:56:14;;;;;;;13.30;4.28;;;;;;;12.16;58.57;100130.63;5012761;28;20129;-65
2022/05/28 04:58:40;;;;;;;16.55;5.18;;;;;;;12.18;58.70;100123.47;5013983;28;20448;-64
2022/05/28 05:01:05;;;;;;;15.55;4.93;;;;;;;12.23;58.09;100126.75;5013846;28;20038;-63
2022/05/28 05:03:32;;;;;;;13.18;3.90;;;;;;;12.27;58.41;100124.78;5013855;28;20091;-62
2022/05/28 05:05:57;;;;;;;12.30;4.20;;;;;;;12.29;58.27;100127.38;5013664;28;20037;-65
2022/05/28 05:08:23;;;;;;;11.10;4.82;;;;;;;12.32;58.08;100125.41;5014011;28;20038;-65
2022/05/28 05:10:48;;;;;;;10.40;5.13;;;;;;;12.38;58.15;100118.94;5014614;28;20022;-64
2022/05/28 05:13:14;;;;;;;13.15;4.15;;;;;;;12.50;58.60;100128.03;5014322;28;20402;-64
2022/05/28 05:15:39;;;;;;;19.98;5.07;;;;;;;12.54;58.55;100124.31;5014755;28;20077;-66
2022/05/28 05:18:05;;;;;;;13.68;4.25;;;;;;;12.58;58.26;100121.44;5017762;28;20038;-65
2022/05/28 05:20:30;;;;;;;12.27;4.30;;;;;;;12.64;58.55;100125.53;5016290;28;20050;-63
2022/05/28 05:22:56;;;;;;;11.98;4.10;;;;;;;12.67;58.48;100115.66;5014007;28;20040;-64
2022/05/28 05:25:23;;;;;;;13.63;3.78;;;;;;;12.72;58.66;100120.69;5013384;28;20501;-64
2022/05/28 05:27:48;;;;;;;14.75;5.30;;;;;;;12.76;58.35;100116.09;5012404;28;20030;-62
2022/05/28 05:30:14;;;;;;;13.00;4.93;;;;;;;12.78;58.62;100122.19;5013234;28;20513;-67
2022/05/28 05:32:39;;;;;;;19.95;5.75;;;;;;;12.86;58.36;100122.59;5012474;28;20045;-65
2022/05/28 05:35:05;;;;;;;19.02;4.93;;;;;;;12.93;58.16;100125.78;5013507;28;20038;-64
2022/05/28 05:37:31;;;;;;;17.80;6.35;;;;;;;12.99;58.49;100133.38;5012648;28;20065;-65
2022/05/28 05:39:56;;;;;;;14.20;5.80;;;;;;;13.17;58.05;100132.41;5013324;28;20030;-66
2022/05/28 05:42:21;;;;;;;10.65;4.80;;;;;;;13.36;57.85;100126.97;5012145;28;20053;-67
2022/05/28 05:44:47;;;;;;;21.90;5.72;;;;;;;13.40;57.63;100132.97;5010217;28;20037;-65
2022/05/28 05:47:13;;;;;;;17.52;5.90;;;;;;;13.36;57.64;100128.78;5011138;28;20121;-67
2022/05/28 05:49:38;;;;;;;17.40;5.28;;;;;;;13.39;58.01;100137.41;5012150;28;20036;-67
2022/05/28 05:52:04;;;;;;;14.82;4.05;;;;;;;13.44;57.75;100132.72;5011655;28;20087;-66
2022/05/28 05:54:30;;;;;;;17.52;4.45;;;;;;;13.49;57.64;100130.66;5011282;28;20038;-66
2022/05/28 05:56:55;;;;;;;14.75;5.10;;;;;;;13.48;58.20;100131.59;5010122;28;20025;-65
2022/05/28 05:59:22;;;;;;;9.45;4.55;;;;;;;13.48;57.93;100131.59;5011283;28;20570;-67
2022/05/28 06:01:47;;;;;;;15.77;5.47;;;;;;;13.50;57.65;100135.00;5010852;28;20373;-66
2022/05/28 06:04:13;;;;;;;15.90;5.28;;;;;;;13.47;57.97;100140.50;5011571;28;20084;-67
2022/05/28 06:06:39;;;;;;;15.55;5.85;;;;;;;13.41;58.10;100140.81;5011177;28;20034;-64
2022/05/28 06:09:05;;;;;;;14.80;4.60;;;;;;;13.41;57.69;100140.81;5011618;28;20033;-65
2022/05/28 06:11:31;;;;;;;13.50;5.07;;;;;;;13.46;58.36;100138.78;5011223;28;20049;-65
2022/05/28 06:13:56;;;;;;;12.68;4.35;;;;;;;13.56;58.14;100143.56;5011740;28;20034;-65
2022/05/28 06:16:22;;;;;;;18.80;4.25;;;;;;;13.73;57.58;100139.03;5013185;28;20076;-62
2022/05/28 06:18:47;;;;;;;11.40;4.38;;;;;;;13.79;57.72;100137.81;5009855;28;20072;-65
2022/05/28 06:21:13;;;;;;;20.20;5.03;;;;;;;13.84;57.81;100145.53;5011135;28;20040;-65
2022/05/28 06:23:39;;;;;;;16.60;4.97;;;;;;;13.87;57.32;100143.53;5011416;28;20030;-66
2022/05/28 06:26:05;;;;;;;13.50;4.85;;;;;;;13.86;57.80;100146.28;5010238;28;20030;-64
2022/05/28 06:28:31;;;;;;;10.13;4.15;;;;;;;13.89;57.57;100140.81;5011026;28;20038;-65
2022/05/28 06:31:01;;;;;;;14.90;4.25;;;;;;;13.91;57.83;100142.44;5010585;28;20038;-65
2022/05/28 06:33:27;;;;;;;13.88;4.50;;;;;;;13.99;57.67;100136.69;5009466;28;20862;-66
2022/05/28 06:35:57;;;;;;;13.95;5.38;;;;;;;14.02;57.87;100144.44;5010509;28;20034;-66
2022/05/28 06:38:22;;;;;;;10.98;4.65;;;;;;;14.06;57.99;100142.50;5010673;28;20088;-66
2022/05/28 06:40:47;;;;;;;18.33;4.70;;;;;;;14.07;57.95;100141.53;5010679;28;20029;-65
2022/05/28 06:43:12;;;;;;;9.87;4.13;;;;;;;14.17;57.81;100140.91;4972455;28;1125617;-67
2022/05/28 06:45:38;;;;;;;11.30;3.83;;;;;;;14.11;57.57;100138.63;5011923;28;20277;-65
2022/05/28 06:48:03;;;;;;;15.00;4.82;;;;;;;14.18;57.64;100142.63;5010832;28;20038;-64
2022/05/28 06:53:13;;;;;;;16.17;4.45;;;;;;;14.35;57.20;100146.94;5011038;28;20037;-66
2022/05/28 06:55:38;;;;;;;12.27;4.65;;;;;;;14.37;57.50;100142.41;5012188;28;20109;-65
2022/05/28 06:58:06;;;;;;;10.85;3.65;;;;;;;14.35;57.04;100148.75;5012336;28;20042;-66
2022/05/28 07:00:32;;;;;;;16.15;4.68;;;;;;;14.33;56.70;100140.03;5011222;28;20567;-66
2022/05/28 07:02:57;;;;;;;9.23;2.92;;;;;;;14.51;56.99;100138.06;5011497;28;20045;-64
2022/05/28 07:05:23;;;;;;;9.95;4.40;;;;;;;14.66;56.33;100147.78;5011107;28;20506;-63
2022/05/28 07:07:48;;;;;;;9.73;3.55;;;;;;;14.72;55.63;100150.06;5010814;28;20126;-65
2022/05/28 07:10:14;;;;;;;10.52;3.85;;;;;;;14.80;55.21;100149.59;5010934;28;20671;-65
2022/05/28 07:12:39;;;;;;;17.98;3.55;;;;;;;14.76;55.67;100143.63;5010112;28;20172;-66
2022/05/28 07:15:06;;;;;;;10.82;4.18;;;;;;;14.94;55.04;100149.63;5010351;28;20026;-65
2022/05/28 07:17:31;;;;;;;8.07;3.42;;;;;;;14.85;54.36;100152.00;5009901;28;20113;-65
2022/05/28 07:19:56;;;;;;;8.93;2.58;;;;;;;14.67;53.38;100154.81;5010678;28;20117;-61
2022/05/28 07:22:22;;;;;;;8.77;3.80;;;;;;;14.50;53.36;100144.31;5010767;28;20486;-64
2022/05/28 07:24:47;;;;;;;10.60;2.83;;;;;;;14.49;54.05;100140.78;5010799;28;20030;-64
2022/05/28 07:27:12;;;;;;;9.52;2.88;;;;;;;14.63;53.55;100142.66;5010371;28;20037;-64
2022/05/28 07:29:39;;;;;;;10.90;3.03;;;;;;;14.63;53.94;100147.13;5010809;28;20120;-65
2022/05/28 07:32:05;;;;;;;6.45;2.60;;;;;;;14.66;53.75;100152.25;5010467;28;20084;-64
2022/05/28 07:34:31;;;;;;;7.13;3.03;;;;;;;14.69;53.22;100147.59;5010304;28;20030;-67
2022/05/28 07:36:56;;;;;;;5.75;2.75;;;;;;;15.25;51.23;100145.91;5009846;28;20040;-66
2022/05/28 07:39:22;;;;;;;11.27;2.90;;;;;;;15.06;51.17;100150.63;5010591;28;20037;-66
2022/05/28 07:41:48;;;;;;;7.05;2.55;;;;;;;14.99;51.19;100154.66;5010280;28;20060;-66
2022/05/28 07:44:14;;;;;;;7.25;2.83;;;;;;;15.23;51.19;100146.94;5010632;28;20398;-65
2022/05/28 07:46:40;;;;;;;7.70;2.40;;;;;;;15.42;50.30;100143.97;5009747;28;20034;-67
2022/05/28 07:49:06;;;;;;;7.50;3.05;;;;;;;15.61;48.89;100141.84;5010194;28;20514;-65
2022/05/28 07:51:33;;;;;;;10.00;2.75;;;;;;;15.74;48.38;100141.94;5010026;28;20149;-66
2022/05/28 07:53:59;;;;;;;4.85;2.10;;;;;;;15.78;48.44;100154.09;5010427;28;20037;-66
2022/05/28 07:56:25;;;;;;;8.18;2.67;;;;;;;15.72;48.37;100146.50;5009729;28;20064;-67
2022/05/28 07:58:54;;;;;;;6.85;2.60;;;;;;;15.64;48.98;100143.47;5010336;28;20180;-66
2022/05/28 08:01:26;;;;;;;8.73;2.25;;;;;;;15.67;49.38;100145.91;5010100;28;20041;-65
2022/05/28 08:03:52;;;;;;;9.70;2.53;;;;;;;15.53;49.02;100145.94;5010236;28;20493;-66
2022/05/28 08:06:18;;;;;;;7.53;2.10;;;;;;;15.39;49.17;100144.19;5007983;28;20037;-66
2022/05/28 08:08:44;;;;;;;7.57;2.72;;;;;;;15.41;49.05;100143.13;5009895;28;20041;-65
2022/05/28 08:11:10;;;;;;;13.07;3.22;;;;;;;15.84;48.07;100140.38;5010147;28;20030;-66
2022/05/28 08:13:36;;;;;;;7.20;2.88;;;;;;;16.24;47.64;100136.88;5009397;28;20046;-64
2022/05/28 08:16:01;;;;;;;5.53;2.50;;;;;;;16.46;47.78;100133.63;5009063;28;20566;-65
2022/05/28 08:18:27;;;;;;;5.25;2.17;;;;;;;16.44;47.53;100136.41;5009333;28;20030;-66
2022/05/28 08:23:39;;;;;;;;;;;;;;;16.10;47.91;100138.69;5009029;28;20045;-65
2022/05/28 08:26:05;;;;;;;10.95;2.53;;;;;;;16.06;47.76;100139.81;5009035;28;19913;-66
2022/05/28 08:28:30;;;;;;;6.57;2.70;;;;;;;16.00;47.75;100137.59;5009861;28;20038;-66
2022/05/28 08:30:56;;;;;;;6.13;1.92;;;;;;;16.11;47.42;100144.84;5009426;28;20045;-66
2022/05/28 08:33:21;;;;;;;5.55;2.45;;;;;;;16.03;47.04;100139.19;5008999;28;20087;-65
2022/05/28 08:35:50;;;;;;;7.03;2.47;;;;;;;16.26;46.28;100143.81;5009430;28;20034;-65
2022/05/28 08:38:18;;;;;;;13.82;3.53;;;;;;;16.54;45.58;100147.28;5009256;28;20091;-65
2022/05/28 08:40:48;;;;;;;5.60;2.15;;;;;;;16.88;44.80;100143.19;5009568;28;20054;-65
2022/05/28 08:43:15;;;;;;;8.63;2.35;;;;;;;16.75;44.76;100145.78;5009596;28;20107;-63
2022/05/28 08:45:42;;;;;;;9.77;2.53;;;;;;;16.46;45.65;100145.13;5009725;28;20077;-66
2022/05/28 08:48:08;;;;;;;5.68;2.00;;;;;;;16.13;46.47;100142.94;5008989;28;20041;-66
2022/05/28 08:50:46;;;;;;;7.13;2.38;;;;;;;16.38;46.39;100144.78;5009582;28;20398;-66
2022/05/28 08:53:17;;;;;;;7.97;2.78;;;;;;;16.64;45.86;100142.19;5009387;28;20037;-66
2022/05/28 08:55:47;;;;;;;9.73;2.17;;;;;;;16.84;45.28;100148.81;5009138;28;20026;-65
2022/05/28 08:58:16;;;;;;;6.85;2.30;;;;;;;17.04;44.10;100139.44;5008813;28;20030;-66
2022/05/28 09:00:42;;;;;;;9.15;2.35;;;;;;;17.12;43.86;100140.59;5009858;28;20036;-66
2022/05/28 09:03:18;;;;;;;4.72;2.17;;;;;;;17.70;43.38;100143.53;5009520;28;20413;-66
2022/05/28 09:06:06;;;;;;;9.68;2.47;;;;;;;18.43;41.20;100136.34;5008877;28;20109;-66
2022/05/28 09:08:50;;;;;;;7.72;2.35;;;;;;;18.75;40.60;100136.53;5010403;28;20512;-66
2022/05/28 09:11:43;;;;;;;8.60;2.05;;;;;;;18.81;40.61;100128.09;5009659;28;20053;-66
2022/05/28 09:14:24;;;;;;;5.55;1.90;;;;;;;18.28;40.71;100132.19;5010246;28;20058;-66
2022/05/28 09:16:52;;;;;;;12.48;2.65;;;;;;;17.98;42.53;100130.88;5008377;28;20029;-55
2022/05/28 09:19:21;;;;;;;7.93;2.28;;;;;;;17.88;42.16;100135.19;5009067;28;20038;-55
2022/05/28 09:21:48;;;;;;;4.47;1.70;;;;;;;17.82;41.76;100128.50;5009770;28;20037;-55
2022/05/28 09:24:33;;;;;;;8.05;2.78;;;;;;;17.69;41.92;100130.31;5009318;28;20482;-58
2022/05/28 09:27:21;;;;;;;11.75;2.95;;;;;;;18.87;40.22;100134.78;5008775;28;20050;-57
2022/05/28 09:30:09;;;;;;;10.30;3.75;;;;;;;19.87;37.97;100121.44;5009201;28;20026;-54
2022/05/28 09:32:55;;;;;;;5.60;1.80;;;;;;;19.47;38.40;100122.84;5008851;28;20042;-52
2022/05/28 09:35:39;;;;;;;6.60;2.33;;;;;;;19.00;39.88;100122.16;5009923;28;20042;-58
2022/05/28 09:38:36;;;;;;;19.92;3.10;;;;;;;18.39;40.44;100126.91;5011747;28;20041;-58
2022/05/28 09:41:25;;;;;;;5.47;2.38;;;;;;;17.97;41.43;100122.00;5008497;28;20045;-58
2022/05/28 09:44:07;;;;;;;3.10;1.75;;;;;;;17.76;43.26;100126.22;5007459;28;20131;-58
2022/05/28 09:46:36;;;;;;;5.55;2.53;;;;;;;17.52;42.62;100129.75;5008260;28;20042;-59
2022/05/28 09:49:10;;;;;;;6.25;2.85;;;;;;;17.40;42.74;100130.63;5008140;28;20044;-58
2022/05/28 09:51:36;;;;;;;12.93;2.67;;;;;;;17.21;43.45;100131.09;5007982;28;20038;-59
2022/05/28 09:54:18;;;;;;;6.72;2.65;;;;;;;17.28;42.66;100127.03;5007080;28;20402;-59
2022/05/28 09:56:46;;;;;;;7.32;2.70;;;;;;;17.24;43.07;100128.22;5006320;28;20038;-57
2022/05/28 09:59:32;;;;;;;8.82;2.30;;;;;;;17.25;43.27;100126.38;5007891;28;20038;-59
2022/05/28 10:02:19;;;;;;;4.38;1.90;;;;;;;17.20;43.08;100124.03;5006497;28;20490;-58
2022/05/28 10:04:50;;;;;;;6.47;2.60;;;;;;;19.21;39.04;100118.75;5008260;28;20041;-56
2022/05/28 10:07:32;;;;;;;5.53;2.25;;;;;;;20.65;36.33;100116.69;5007273;28;20050;-59
2022/05/28 10:09:58;;;;;;;5.10;2.80;;;;;;;21.55;35.10;100103.38;5006874;28;20121;-58
2022/05/28 10:12:29;;;;;;;6.72;2.35;;;;;;;22.20;32.64;100095.69;5000805;28;20037;-57
2022/05/28 10:15:11;;;;;;;5.60;2.67;;;;;;;23.15;30.51;100094.72;5003547;28;20040;-62
2022/05/28 10:17:38;;;;;;;7.28;1.45;;;;;;;23.13;30.23;100096.69;5003491;28;20872;-63
2022/05/28 10:20:15;;;;;;;6.60;2.42;;;;;;;21.92;31.82;100100.03;5007047;28;20069;-64
2022/05/28 10:22:40;;;;;;;5.50;1.98;;;;;;;20.87;33.44;100110.31;5002451;28;20610;-64
2022/05/28 10:25:22;;;;;;;5.60;2.75;;;;;;;21.34;32.77;100097.22;5006420;28;20041;-63
2022/05/28 10:27:51;;;;;;;4.05;1.90;;;;;;;20.91;33.13;100096.50;5006044;28;20080;-65
2022/05/28 10:30:39;;;;;;;2.83;1.80;;;;;;;19.79;35.11;100098.00;5007351;28;20038;-66
2022/05/28 10:33:18;;;;;;;6.30;2.60;;;;;;;19.98;35.38;100099.13;5006029;28;20061;-65
2022/05/28 10:35:45;;;;;;;4.30;2.22;;;;;;;21.34;33.36;100103.47;5007035;28;20041;-64
2022/05/28 10:38:10;;;;;;;10.70;3.17;;;;;;;22.45;32.02;100096.91;5005900;28;20042;-66
2022/05/28 10:40:55;;;;;;;6.60;3.43;;;;;;;23.29;30.29;100096.06;5007027;28;20050;-65
2022/05/28 10:43:37;;;;;;;4.10;2.10;;;;;;;23.48;28.65;100091.56;5006400;28;20303;-66
2022/05/28 10:46:41;;;;;;;4.85;2.08;;;;;;;22.55;29.57;100074.56;5006012;28;20037;-67
2022/05/28 10:49:35;;;;;;;6.15;2.05;;;;;;;22.86;29.69;100077.84;5005704;28;20045;-64
2022/05/28 10:52:09;;;;;;;7.25;1.80;;;;;;;23.23;29.76;100085.06;5029858;28;20391;-66
2022/05/28 10:54:37;;;;;;;3.53;2.00;;;;;;;22.35;30.05;100087.16;5007024;28;20053;-66
2022/05/28 10:57:40;;;;;;;3.47;1.70;;;;;;;21.99;29.95;100079.69;5006175;28;20034;-65
2022/05/28 11:00:15;;;;;;;2.10;1.60;;;;;;;21.92;29.50;100075.88;5006332;28;20537;-65
2022/05/28 11:03:02;;;;;;;8.70;1.80;;;;;;;21.59;29.39;100069.94;5006613;28;20033;-66
2022/05/28 11:06:05;;;;;;;4.93;1.83;;;;;;;21.46;30.21;100068.50;5006705;28;20053;-66
2022/05/28 11:08:47;;;;;;;4.75;2.03;;;;;;;21.05;30.27;100059.63;5006274;28;20452;-66
2022/05/28 11:11:37;;;;;;;5.72;1.77;;;;;;;20.22;32.01;100067.63;5006459;28;20038;-66
2022/05/28 11:14:30;;;;;;;4.30;1.48;;;;;;;19.85;32.66;100065.38;5006209;28;20537;-66
2022/05/28 11:17:01;;;;;;;5.18;1.83;;;;;;;19.70;32.85;100059.47;5004993;28;20045;-65
2022/05/28 11:20:05;;;;;;;6.38;2.28;;;;;;;19.07;33.26;100064.59;5005925;28;20042;-65
2022/05/28 11:22:35;;;;;;;5.05;1.73;;;;;;;18.62;33.50;100064.53;5006237;28;20038;-68
2022/05/28 11:25:13;;;;;;;7.05;2.00;;;;;;;18.95;33.49;100060.22;5006289;28;20038;-66
2022/05/28 11:27:43;;;;;;;11.25;2.97;;;;;;;19.16;33.30;100056.78;5005575;28;20100;-66
2022/05/28 11:30:11;;;;;;;5.28;3.28;;;;;;;19.26;33.13;100060.41;5005761;28;20066;-66
2022/05/28 11:33:00;;;;;;;4.45;1.80;;;;;;;19.17;32.87;100053.97;5005467;28;20041;-65
2022/05/28 11:35:55;;;;;;;7.82;2.17;;;;;;;19.12;32.63;100044.63;5004262;28;20800;-64
2022/05/28 11:38:30;;;;;;;4.45;1.65;;;;;;;19.06;32.53;100049.50;5005856;28;20046;-65